Time;durP1;ratioP1;P1;durP2;ratioP2;P2;SDS_P1;SDS_P2;PMS_P1;PMS_P2;Temp;Humidity;BMP_temperature;BMP_pressure;BME280_temperature;BME280_humidity;BME280_pressure;Samples;Min_cycle;Max_cycle;Signal;HPM_P1;HPM_P2
2024/02/06 00:01:26;;;;;;;13.27;8.20;;;9.40;99.90;;;;;;5043706;28;20037;-73
2024/02/06 00:03:53;;;;;;;12.27;7.32;;;9.40;99.90;;;;;;5032749;28;20539;-73
2024/02/06 00:06:18;;;;;;;16.90;7.88;;;9.40;99.90;;;;;;5033731;28;20057;-73
2024/02/06 00:08:44;;;;;;;13.15;8.55;;;9.40;99.90;;;;;;5032964;28;20118;-72
2024/02/06 00:11:10;;;;;;;14.82;8.63;;;9.50;99.90;;;;;;5037294;28;20030;-73
2024/02/06 00:13:36;;;;;;;18.08;8.32;;;9.40;99.90;;;;;;5012754;28;20029;-73
2024/02/06 00:16:02;;;;;;;14.32;8.25;;;9.40;99.90;;;;;;5032248;28;20120;-73
2024/02/06 00:18:27;;;;;;;13.85;8.40;;;9.40;99.90;;;;;;5033617;28;20164;-72
2024/02/06 00:20:53;;;;;;;16.77;8.57;;;9.40;99.90;;;;;;5031934;28;20030;-73
2024/02/06 00:23:18;;;;;;;13.27;7.90;;;9.40;99.90;;;;;;5033430;28;20488;-73
2024/02/06 00:25:44;;;;;;;12.13;7.97;;;9.40;99.90;;;;;;5032774;28;20030;-73
2024/02/06 00:28:10;;;;;;;16.02;8.88;;;9.40;99.90;;;;;;5032940;28;20022;-72
2024/02/06 00:30:35;;;;;;;12.85;8.57;;;9.40;99.90;;;;;;5034244;28;20116;-72
2024/02/06 00:33:01;;;;;;;13.65;8.68;;;9.40;99.90;;;;;;5046254;28;20040;-72
2024/02/06 00:35:29;;;;;;;17.88;8.80;;;9.40;99.90;;;;;;5033841;28;20522;-72
2024/02/06 00:37:57;;;;;;;16.00;8.40;;;9.40;99.90;;;;;;5033007;28;20029;-72
2024/02/06 00:40:23;;;;;;;19.27;9.90;;;9.40;99.90;;;;;;5032921;28;20108;-73
2024/02/06 00:42:48;;;;;;;18.25;9.27;;;9.40;99.90;;;;;;5045037;28;20106;-73
2024/02/06 00:45:18;;;;;;;11.45;8.38;;;9.40;99.90;;;;;;5032610;28;20030;-72
2024/02/06 00:47:47;;;;;;;16.10;8.20;;;9.50;99.90;;;;;;5032464;28;20042;-72
2024/02/06 00:50:13;;;;;;;14.98;8.23;;;9.50;99.90;;;;;;5040067;28;20022;-72
2024/02/06 00:52:38;;;;;;;15.48;7.88;;;9.50;99.90;;;;;;5048696;28;20029;-73
2024/02/06 00:55:04;;;;;;;12.70;8.30;;;9.50;99.90;;;;;;5032148;28;20116;-72
2024/02/06 00:57:30;;;;;;;12.60;7.95;;;9.50;99.90;;;;;;5032537;28;20474;-73
2024/02/06 00:59:55;;;;;;;12.50;8.52;;;9.50;99.90;;;;;;5033780;28;20030;-72
2024/02/06 01:02:22;;;;;;;15.15;7.40;;;9.60;99.90;;;;;;5035073;28;20022;-72
2024/02/06 01:04:48;;;;;;;15.57;8.18;;;9.60;99.90;;;;;;5031944;28;20072;-72
2024/02/06 01:07:14;;;;;;;17.33;8.40;;;9.60;99.90;;;;;;5032398;28;20057;-73
2024/02/06 01:09:39;;;;;;;12.35;7.05;;;9.60;99.90;;;;;;5032552;28;20030;-73
2024/02/06 01:12:05;;;;;;;15.82;8.38;;;9.60;99.90;;;;;;5040214;28;20063;-72
2024/02/06 01:14:31;;;;;;;15.52;7.50;;;9.60;99.90;;;;;;5032043;28;20224;-73
2024/02/06 01:16:56;;;;;;;13.80;7.53;;;9.60;99.90;;;;;;5031675;28;20390;-73
2024/02/06 01:19:22;;;;;;;14.00;8.07;;;9.60;99.90;;;;;;5037274;28;20029;-72
2024/02/06 01:21:47;;;;;;;10.45;6.38;;;9.60;99.90;;;;;;5035556;28;20025;-72
2024/02/06 01:24:13;;;;;;;11.93;7.03;;;9.60;99.90;;;;;;5032196;28;20026;-72
2024/02/06 01:26:38;;;;;;;17.90;7.00;;;9.60;99.90;;;;;;5032142;28;20116;-72
2024/02/06 01:29:04;;;;;;;12.18;7.00;;;9.60;99.90;;;;;;5031179;28;20478;-73
2024/02/06 01:31:30;;;;;;;13.27;6.43;;;9.60;99.90;;;;;;5032031;28;20063;-72
2024/02/06 01:33:55;;;;;;;16.13;7.22;;;9.70;99.90;;;;;;5031158;28;20029;-73
2024/02/06 01:36:21;;;;;;;14.07;6.13;;;9.60;99.90;;;;;;5031712;28;20034;-73
2024/02/06 01:38:46;;;;;;;11.75;6.43;;;9.60;99.90;;;;;;5031510;28;20478;-72
2024/02/06 01:41:12;;;;;;;16.77;7.25;;;9.60;99.90;;;;;;5027963;28;20108;-72
2024/02/06 01:43:38;;;;;;;16.45;6.15;;;9.70;99.90;;;;;;5031284;28;20052;-72
2024/02/06 01:46:05;;;;;;;18.02;6.93;;;9.70;99.90;;;;;;5031342;28;20036;-72
2024/02/06 01:48:30;;;;;;;12.65;5.82;;;9.70;99.90;;;;;;5031647;28;20045;-72
2024/02/06 01:50:56;;;;;;;12.35;5.40;;;9.70;99.90;;;;;;5035577;28;20036;-72
2024/02/06 01:53:23;;;;;;;12.68;5.35;;;9.70;99.90;;;;;;5032853;28;20017;-73
2024/02/06 01:55:50;;;;;;;10.32;5.38;;;9.70;99.90;;;;;;5031270;28;20124;-73
2024/02/06 01:58:15;;;;;;;11.35;4.82;;;9.70;99.90;;;;;;5031587;28;20032;-72
2024/02/06 02:00:43;;;;;;;13.43;5.10;;;9.70;99.90;;;;;;5031349;28;20021;-73
2024/02/06 02:03:09;;;;;;;12.23;5.43;;;9.70;99.90;;;;;;5031358;28;20053;-72
2024/02/06 02:05:35;;;;;;;13.25;4.47;;;9.80;99.90;;;;;;5030093;28;20033;-73
2024/02/06 02:08:00;;;;;;;15.80;6.22;;;9.80;99.90;;;;;;5030962;28;20029;-72
2024/02/06 02:10:26;;;;;;;13.32;4.38;;;9.80;99.90;;;;;;5031280;28;20029;-73
2024/02/06 02:12:52;;;;;;;12.93;4.00;;;9.80;99.90;;;;;;5030841;28;20045;-72
2024/02/06 02:15:18;;;;;;;10.40;4.47;;;9.80;99.90;;;;;;5031759;28;20029;-72
2024/02/06 02:17:50;;;;;;;11.82;3.85;;;9.80;99.90;;;;;;5030937;28;20048;-72
2024/02/06 02:20:15;;;;;;;;;;;9.80;99.90;;;;;;5031969;28;20091;-72
2024/02/06 02:22:41;;;;;;;10.32;4.15;;;9.80;99.90;;;;;;5031004;28;20369;-72
2024/02/06 02:25:07;;;;;;;9.77;3.92;;;9.80;99.90;;;;;;5031947;28;20029;-73
2024/02/06 02:27:33;;;;;;;12.57;4.13;;;9.90;99.90;;;;;;5035678;28;20473;-72
2024/02/06 02:29:59;;;;;;;11.45;4.05;;;9.90;99.90;;;;;;5035062;28;20026;-72
2024/02/06 02:32:25;;;;;;;12.15;4.70;;;9.90;99.90;;;;;;5035180;28;20040;-72
2024/02/06 02:34:50;;;;;;;9.90;3.80;;;9.90;99.90;;;;;;5034786;28;20055;-73
2024/02/06 02:37:16;;;;;;;13.60;3.67;;;9.90;99.90;;;;;;5035166;28;20080;-72
2024/02/06 02:39:41;;;;;;;10.23;3.83;;;9.90;99.90;;;;;;5034838;28;20041;-73
2024/02/06 02:42:08;;;;;;;13.63;4.18;;;9.90;99.90;;;;;;5035649;28;20037;-73
2024/02/06 02:44:33;;;;;;;7.00;3.30;;;9.90;99.90;;;;;;5035217;28;20204;-73
2024/02/06 02:46:59;;;;;;;12.30;3.72;;;9.90;99.90;;;;;;5034949;28;20044;-72
2024/02/06 02:49:24;;;;;;;10.13;4.05;;;9.90;99.90;;;;;;5038080;28;20063;-72
2024/02/06 02:51:50;;;;;;;10.82;4.13;;;10.00;99.90;;;;;;5054160;28;20029;-72
2024/02/06 02:54:16;;;;;;;10.25;3.72;;;10.00;99.90;;;;;;5053763;28;20492;-73
2024/02/06 02:56:42;;;;;;;10.55;3.75;;;10.00;99.90;;;;;;5033290;28;20034;-72
2024/02/06 02:59:08;;;;;;;15.25;4.30;;;10.00;99.90;;;;;;5034499;28;20192;-73
2024/02/06 03:01:33;;;;;;;10.77;3.85;;;10.00;99.90;;;;;;5034262;28;20041;-73
2024/02/06 03:03:59;;;;;;;10.30;3.95;;;10.00;99.90;;;;;;5034348;28;20493;-72
2024/02/06 03:06:25;;;;;;;15.77;4.80;;;10.10;99.90;;;;;;5034690;28;20022;-72
2024/02/06 03:08:50;;;;;;;9.38;4.03;;;10.00;99.90;;;;;;5034231;28;20501;-72
2024/02/06 03:11:16;;;;;;;13.00;4.68;;;10.00;99.90;;;;;;5039394;28;20017;-73
2024/02/06 03:13:42;;;;;;;12.32;4.07;;;10.10;99.90;;;;;;5034087;28;20030;-73
2024/02/06 03:16:08;;;;;;;20.25;6.20;;;10.10;99.90;;;;;;5051332;28;20037;-73
2024/02/06 03:18:34;;;;;;;11.80;4.70;;;10.10;99.90;;;;;;5036817;28;20464;-73
2024/02/06 03:21:00;;;;;;;10.73;5.13;;;10.10;99.90;;;;;;5039682;28;20095;-73
2024/02/06 03:23:25;;;;;;;17.58;5.93;;;10.10;99.90;;;;;;5045095;28;20064;-72
2024/02/06 03:25:51;;;;;;;14.88;5.80;;;10.10;99.90;;;;;;5033915;28;20371;-73
2024/02/06 03:28:17;;;;;;;14.02;5.25;;;10.10;99.90;;;;;;5034470;28;20025;-72
2024/02/06 03:30:46;;;;;;;13.48;5.25;;;10.10;99.90;;;;;;5045653;28;20389;-73
2024/02/06 03:33:12;;;;;;;13.82;5.13;;;10.10;99.90;;;;;;5021385;28;20068;-73
2024/02/06 03:35:40;;;;;;;14.40;5.13;;;10.10;99.90;;;;;;5034499;28;20041;-72
2024/02/06 03:38:06;;;;;;;12.95;5.95;;;10.10;99.90;;;;;;5032403;28;20497;-72
2024/02/06 03:40:32;;;;;;;17.10;6.15;;;10.10;99.90;;;;;;5041407;28;20040;-73
2024/02/06 03:42:58;;;;;;;16.65;6.10;;;10.00;99.90;;;;;;5035934;28;20029;-73
2024/02/06 03:45:24;;;;;;;15.82;5.75;;;10.10;99.90;;;;;;5044978;28;20028;-72
2024/02/06 03:47:50;;;;;;;12.30;4.90;;;10.10;99.90;;;;;;5033354;28;20073;-72
2024/02/06 03:50:15;;;;;;;13.93;5.03;;;10.00;99.90;;;;;;5033679;28;20122;-73
2024/02/06 03:52:41;;;;;;;13.02;5.80;;;10.10;99.90;;;;;;5033704;28;20064;-73
2024/02/06 03:55:07;;;;;;;15.88;5.65;;;10.00;99.90;;;;;;5033930;28;20029;-72
2024/02/06 03:57:33;;;;;;;10.13;4.75;;;10.00;99.90;;;;;;5034445;28;20049;-73
2024/02/06 03:59:59;;;;;;;14.02;5.00;;;10.10;99.90;;;;;;5046237;28;20107;-73
2024/02/06 04:02:25;;;;;;;8.70;4.53;;;10.00;99.90;;;;;;5046387;28;20061;-73
2024/02/06 04:04:50;;;;;;;11.32;5.20;;;10.00;99.90;;;;;;5033251;28;20025;-73
2024/02/06 04:07:17;;;;;;;11.13;5.30;;;10.00;99.90;;;;;;5033609;28;20105;-72
2024/02/06 04:09:43;;;;;;;18.88;5.55;;;10.00;99.90;;;;;;5039869;28;20112;-72
2024/02/06 04:12:08;;;;;;;16.83;5.43;;;10.00;99.90;;;;;;5048830;28;20460;-73
2024/02/06 04:14:34;;;;;;;7.97;5.03;;;10.00;99.90;;;;;;5037567;28;20043;-72
2024/02/06 04:16:59;;;;;;;11.75;5.25;;;10.00;99.90;;;;;;5033021;28;20033;-72
2024/02/06 04:19:25;;;;;;;14.10;5.53;;;10.10;99.90;;;;;;5034199;28;20080;-72
2024/02/06 04:21:51;;;;;;;12.30;5.22;;;10.10;99.90;;;;;;5047112;28;20381;-72
2024/02/06 04:24:17;;;;;;;12.27;4.97;;;10.10;99.90;;;;;;5044648;28;20021;-73
2024/02/06 04:26:43;;;;;;;13.93;5.38;;;10.10;99.90;;;;;;5032682;28;20026;-73
2024/02/06 04:29:09;;;;;;;11.40;4.47;;;10.10;99.90;;;;;;5033051;28;20436;-72
2024/02/06 04:31:35;;;;;;;11.77;4.53;;;10.00;99.90;;;;;;5032942;28;20041;-72
2024/02/06 04:34:00;;;;;;;19.25;5.57;;;10.00;99.90;;;;;;5032625;28;20068;-72
2024/02/06 04:36:26;;;;;;;18.60;5.30;;;10.10;99.90;;;;;;5033126;28;20037;-72
2024/02/06 04:38:52;;;;;;;10.43;4.30;;;10.10;99.90;;;;;;5032690;28;20022;-73
2024/02/06 04:41:17;;;;;;;13.18;5.45;;;10.10;99.90;;;;;;5041039;28;20113;-73
2024/02/06 04:43:43;;;;;;;14.65;5.72;;;10.10;99.90;;;;;;5031159;28;20025;-74
2024/02/06 04:46:09;;;;;;;12.30;4.25;;;10.10;99.90;;;;;;5033030;28;20096;-73
2024/02/06 04:48:35;;;;;;;14.68;4.43;;;10.10;99.90;;;;;;5032240;28;20056;-72
2024/02/06 04:51:00;;;;;;;11.77;4.88;;;10.10;99.90;;;;;;5031790;28;20040;-73
2024/02/06 04:53:26;;;;;;;10.77;4.28;;;10.10;99.90;;;;;;5032625;28;20055;-72
2024/02/06 04:55:52;;;;;;;15.90;5.03;;;10.20;99.90;;;;;;5032314;28;20505;-73
2024/02/06 04:58:18;;;;;;;14.57;4.57;;;10.20;99.90;;;;;;5032590;28;20378;-72
2024/02/06 05:00:44;;;;;;;13.98;5.10;;;10.20;99.90;;;;;;5039052;28;20033;-72
2024/02/06 05:03:10;;;;;;;13.35;5.15;;;10.10;99.90;;;;;;5032944;28;20026;-72
2024/02/06 05:05:35;;;;;;;12.27;5.43;;;10.20;99.90;;;;;;5032029;28;20040;-73
2024/02/06 05:08:01;;;;;;;13.15;5.97;;;10.20;99.90;;;;;;5032168;28;20748;-73
2024/02/06 05:10:27;;;;;;;18.55;6.35;;;10.20;99.90;;;;;;5038401;28;20392;-72
2024/02/06 05:12:54;;;;;;;14.52;6.25;;;10.20;99.90;;;;;;5051530;28;20032;-72
2024/02/06 05:15:19;;;;;;;11.30;6.20;;;10.20;99.90;;;;;;5038383;28;20032;-73
2024/02/06 05:17:46;;;;;;;15.70;6.00;;;10.10;99.90;;;;;;5031906;28;20390;-72
2024/02/06 05:20:12;;;;;;;18.63;5.72;;;10.10;99.90;;;;;;5032184;28;20367;-72
2024/02/06 05:22:38;;;;;;;12.18;6.00;;;10.10;99.90;;;;;;5031976;28;20057;-72
2024/02/06 05:25:05;;;;;;;15.40;6.25;;;10.10;99.90;;;;;;5032129;28;20032;-73
2024/02/06 05:27:31;;;;;;;17.70;5.57;;;10.00;99.90;;;;;;5032269;28;20029;-72
2024/02/06 05:29:57;;;;;;;14.43;6.53;;;10.00;99.90;;;;;;5023725;28;20033;-73
2024/02/06 05:32:22;;;;;;;14.30;5.82;;;10.00;99.90;;;;;;5032096;28;20055;-72
2024/02/06 05:34:53;;;;;;;11.25;6.85;;;9.90;99.90;;;;;;5031160;28;20084;-73
2024/02/06 05:37:19;;;;;;;10.45;6.20;;;9.90;99.90;;;;;;5031958;28;20025;-73
2024/02/06 05:39:44;;;;;;;11.98;5.63;;;9.90;99.90;;;;;;5035727;28;20039;-73
2024/02/06 05:42:10;;;;;;;15.80;6.45;;;9.90;99.90;;;;;;5046533;28;20030;-72
2024/02/06 05:44:38;;;;;;;16.02;6.50;;;9.90;99.90;;;;;;5032028;28;20052;-73
2024/02/06 05:47:04;;;;;;;14.52;6.15;;;9.90;99.90;;;;;;5031736;28;20040;-73
2024/02/06 05:49:29;;;;;;;12.52;5.40;;;9.80;99.90;;;;;;5031709;28;20120;-72
2024/02/06 05:51:55;;;;;;;15.57;7.25;;;9.90;99.90;;;;;;5039356;28;20057;-73
2024/02/06 05:54:21;;;;;;;15.23;5.78;;;9.90;99.90;;;;;;5031296;28;20026;-72
2024/02/06 05:56:47;;;;;;;20.67;7.35;;;9.80;99.90;;;;;;5031322;28;20417;-73
2024/02/06 05:59:13;;;;;;;14.45;5.90;;;9.80;99.90;;;;;;5031646;28;20486;-72
2024/02/06 06:01:38;;;;;;;14.00;6.47;;;9.90;99.90;;;;;;5038944;28;20030;-72
2024/02/06 06:04:04;;;;;;;17.08;6.57;;;9.80;99.90;;;;;;5031273;28;20465;-72
2024/02/06 06:06:32;;;;;;;15.95;6.53;;;9.80;99.90;;;;;;5031489;28;20022;-73
2024/02/06 06:08:59;;;;;;;14.55;6.85;;;9.80;99.90;;;;;;5033100;28;20025;-72
2024/02/06 06:11:24;;;;;;;15.95;6.15;;;9.80;99.90;;;;;;5039685;28;20033;-73
2024/02/06 06:13:50;;;;;;;12.85;5.93;;;9.80;99.90;;;;;;5031126;28;20037;-73
2024/02/06 06:16:16;;;;;;;10.00;6.05;;;9.80;99.90;;;;;;5031324;28;20477;-73
2024/02/06 06:18:41;;;;;;;20.73;7.18;;;9.80;99.90;;;;;;5031181;28;20017;-73
2024/02/06 06:21:07;;;;;;;24.27;7.63;;;9.80;99.90;;;;;;5047310;28;20107;-73
2024/02/06 06:23:32;;;;;;;18.45;5.95;;;9.80;99.90;;;;;;5038974;28;20478;-72
2024/02/06 06:25:59;;;;;;;15.43;6.75;;;9.80;99.90;;;;;;5030872;28;20087;-72
2024/02/06 06:28:25;;;;;;;15.90;6.18;;;9.80;99.90;;;;;;5030952;28;20107;-72
2024/02/06 06:30:51;;;;;;;14.32;6.65;;;9.80;99.90;;;;;;5041001;28;20473;-72
2024/02/06 06:33:18;;;;;;;17.90;5.78;;;9.80;99.90;;;;;;5040587;28;20053;-73
2024/02/06 06:35:43;;;;;;;17.02;5.97;;;9.80;99.90;;;;;;5030767;28;20041;-72
2024/02/06 06:38:09;;;;;;;15.80;5.50;;;9.80;99.90;;;;;;5030923;28;20048;-73
2024/02/06 06:40:35;;;;;;;12.55;4.85;;;9.80;99.90;;;;;;5046549;28;20044;-73
2024/02/06 06:43:00;;;;;;;18.50;4.97;;;9.80;99.90;;;;;;5030833;28;20025;-73
2024/02/06 06:45:27;;;;;;;16.92;5.00;;;9.80;99.90;;;;;;5030990;28;20025;-73
2024/02/06 06:47:53;;;;;;;15.45;4.80;;;9.80;99.90;;;;;;5030729;28;20060;-72
2024/02/06 06:50:19;;;;;;;15.57;5.13;;;9.80;99.90;;;;;;5030948;28;20105;-73
2024/02/06 06:52:44;;;;;;;18.02;5.13;;;9.90;99.90;;;;;;5030983;28;20035;-73
2024/02/06 06:55:10;;;;;;;13.30;4.93;;;9.80;99.90;;;;;;5029224;28;20042;-72
2024/02/06 06:57:42;;;;;;;14.50;5.07;;;9.80;99.90;;;;;;5031030;28;20072;-72
2024/02/06 07:00:17;;;;;;;15.95;5.68;;;9.80;99.90;;;;;;5031057;28;20025;-73
2024/02/06 07:02:43;;;;;;;12.80;4.45;;;9.80;99.90;;;;;;5046554;28;20091;-73
2024/02/06 07:05:12;;;;;;;17.67;5.75;;;9.80;99.90;;;;;;5030968;28;20021;-73
2024/02/06 07:07:38;;;;;;;14.65;5.03;;;9.80;99.90;;;;;;5030730;28;20037;-73
2024/02/06 07:10:04;;;;;;;14.35;4.70;;;9.80;99.90;;;;;;5030474;28;20025;-72
2024/02/06 07:12:32;;;;;;;15.18;4.80;;;9.80;99.90;;;;;;5033639;28;20378;-73
2024/02/06 07:14:57;;;;;;;12.75;4.78;;;9.80;99.90;;;;;;5034035;28;20025;-72
2024/02/06 07:17:23;;;;;;;12.68;4.22;;;9.70;99.90;;;;;;5034361;28;20033;-72
2024/02/06 07:19:49;;;;;;;15.25;4.88;;;9.70;99.90;;;;;;5034158;28;20022;-72
2024/02/06 07:22:15;;;;;;;16.05;5.95;;;9.80;99.90;;;;;;5041995;28;20063;-73
2024/02/06 07:24:40;;;;;;;10.57;5.07;;;9.80;99.90;;;;;;5034360;28;20387;-72
2024/02/06 07:27:06;;;;;;;16.00;6.07;;;9.70;99.90;;;;;;5033858;28;20025;-73
2024/02/06 07:29:31;;;;;;;13.07;5.55;;;9.70;99.90;;;;;;5040340;28;20103;-73
2024/02/06 07:31:57;;;;;;;15.00;5.32;;;9.70;99.90;;;;;;5033168;28;20075;-73
2024/02/06 07:34:23;;;;;;;19.50;5.55;;;9.70;99.90;;;;;;5032912;28;20486;-73
2024/02/06 07:36:48;;;;;;;14.18;5.18;;;9.70;99.90;;;;;;5033452;28;20037;-73
2024/02/06 07:39:14;;;;;;;17.65;6.13;;;9.70;99.90;;;;;;5035513;28;20096;-72
2024/02/06 07:41:40;;;;;;;18.05;5.85;;;9.60;99.90;;;;;;5039470;28;20030;-73
2024/02/06 07:44:06;;;;;;;14.77;5.43;;;9.60;99.90;;;;;;5033274;28;20037;-73
2024/02/06 07:46:32;;;;;;;15.18;5.30;;;9.60;99.90;;;;;;5033991;28;20034;-73
2024/02/06 07:48:57;;;;;;;23.55;5.47;;;9.60;99.90;;;;;;5033427;28;20050;-72
2024/02/06 07:51:23;;;;;;;16.10;6.30;;;9.60;99.90;;;;;;5033782;28;20469;-73
2024/02/06 07:53:56;;;;;;;11.05;5.07;;;9.60;99.90;;;;;;5033425;28;20025;-73
2024/02/06 07:56:22;;;;;;;;;;;9.60;99.90;;;;;;5034318;28;20401;-72
2024/02/06 07:58:48;;;;;;;16.05;5.43;;;9.60;99.90;;;;;;5032864;28;19915;-72
2024/02/06 08:01:16;;;;;;;16.10;6.15;;;9.60;99.90;;;;;;5034972;28;20120;-73
2024/02/06 08:03:42;;;;;;;14.02;5.00;;;9.70;99.90;;;;;;5033283;28;20028;-73
2024/02/06 08:06:08;;;;;;;16.35;5.68;;;9.70;99.90;;;;;;5033524;28;20029;-73
2024/02/06 08:08:33;;;;;;;18.05;5.35;;;9.70;99.90;;;;;;5033511;28;20034;-73
2024/02/06 08:10:59;;;;;;;14.10;4.97;;;9.70;99.90;;;;;;5041571;28;20452;-72
2024/02/06 08:13:26;;;;;;;19.88;5.22;;;9.70;99.90;;;;;;5033110;28;20041;-73
2024/02/06 08:15:52;;;;;;;14.18;4.68;;;9.80;99.90;;;;;;5032924;28;20061;-73
2024/02/06 08:18:18;;;;;;;9.40;4.38;;;9.80;99.90;;;;;;5033372;28;20072;-73
2024/02/06 08:20:43;;;;;;;16.05;4.88;;;9.90;99.90;;;;;;5032946;28;20025;-73
2024/02/06 08:23:09;;;;;;;12.95;4.28;;;9.90;99.90;;;;;;5032354;28;20025;-73
2024/02/06 08:25:35;;;;;;;14.55;4.10;;;9.90;99.90;;;;;;5032403;28;20083;-73
2024/02/06 08:28:00;;;;;;;15.82;4.28;;;10.00;99.90;;;;;;5032295;28;20385;-73
2024/02/06 08:30:26;;;;;;;15.20;4.35;;;10.00;99.90;;;;;;5032337;28;20508;-73
2024/02/06 08:32:52;;;;;;;15.77;4.90;;;10.00;99.90;;;;;;5032079;28;20059;-73
2024/02/06 08:35:17;;;;;;;17.60;4.65;;;10.00;99.90;;;;;;5046491;28;20045;-73
2024/02/06 08:37:43;;;;;;;12.35;4.32;;;10.00;99.90;;;;;;5038676;28;20120;-74
2024/02/06 08:40:10;;;;;;;16.30;5.13;;;10.00;99.90;;;;;;5033325;28;20083;-73
2024/02/06 08:42:36;;;;;;;9.63;3.60;;;10.10;99.90;;;;;;5047172;28;20025;-73
2024/02/06 08:45:03;;;;;;;17.92;4.07;;;10.10;99.90;;;;;;5037101;28;20371;-73
2024/02/06 08:47:28;;;;;;;10.10;3.47;;;10.10;99.90;;;;;;5032744;28;20041;-73
2024/02/06 08:49:54;;;;;;;10.38;3.92;;;10.10;99.90;;;;;;5032719;28;20397;-73
2024/02/06 08:52:19;;;;;;;14.63;3.72;;;10.10;99.90;;;;;;5040192;28;20151;-73
2024/02/06 08:54:45;;;;;;;15.90;4.20;;;10.10;99.90;;;;;;5040140;28;20123;-73
2024/02/06 08:57:11;;;;;;;18.02;3.97;;;10.10;99.90;;;;;;5032283;28;20037;-73
2024/02/06 08:59:37;;;;;;;14.77;3.58;;;10.10;99.90;;;;;;5031186;28;20048;-73
2024/02/06 09:02:03;;;;;;;15.85;4.07;;;10.20;99.90;;;;;;5031494;28;20052;-73
2024/02/06 09:04:29;;;;;;;15.75;3.70;;;10.20;99.90;;;;;;5032178;28;20096;-73
2024/02/06 09:06:55;;;;;;;18.58;4.15;;;10.20;99.90;;;;;;5031583;28;20033;-73
2024/02/06 09:09:20;;;;;;;15.80;3.72;;;10.20;99.90;;;;;;5032299;28;20026;-73
2024/02/06 09:11:46;;;;;;;12.35;3.30;;;10.20;99.90;;;;;;5032761;28;20037;-73
2024/02/06 09:14:12;;;;;;;24.45;4.47;;;10.20;99.90;;;;;;5051869;28;20377;-73
2024/02/06 09:16:38;;;;;;;13.70;3.42;;;10.20;99.90;;;;;;5052049;28;20044;-73
2024/02/06 09:19:03;;;;;;;16.33;3.42;;;10.20;99.90;;;;;;5037872;28;20080;-73
2024/02/06 09:21:30;;;;;;;15.90;3.30;;;10.20;99.90;;;;;;5031885;28;20026;-73
2024/02/06 09:23:56;;;;;;;12.35;3.38;;;10.30;99.90;;;;;;5030805;28;20022;-73
2024/02/06 09:26:21;;;;;;;16.65;2.83;;;10.40;99.90;;;;;;5031868;28;20036;-73
2024/02/06 09:28:47;;;;;;;13.82;2.80;;;10.40;99.90;;;;;;5037869;28;20074;-73
2024/02/06 09:31:13;;;;;;;13.02;2.60;;;10.50;99.90;;;;;;5031829;28;20116;-73
2024/02/06 09:33:38;;;;;;;22.70;3.28;;;10.50;99.90;;;;;;5031914;28;20100;-73
2024/02/06 09:36:05;;;;;;;16.45;3.10;;;10.60;99.90;;;;;;5031024;28;20128;-73
2024/02/06 09:38:31;;;;;;;13.07;2.65;;;10.70;99.90;;;;;;5033049;28;20057;-73
2024/02/06 09:40:57;;;;;;;13.02;2.97;;;10.70;99.90;;;;;;5031038;28;20033;-73
2024/02/06 09:43:23;;;;;;;15.38;2.65;;;10.80;99.90;;;;;;5031575;28;20529;-73
2024/02/06 09:45:49;;;;;;;13.95;3.42;;;10.80;99.90;;;;;;5030909;28;20037;-73
2024/02/06 09:48:15;;;;;;;12.95;2.70;;;10.80;99.90;;;;;;5030972;28;20042;-73
2024/02/06 09:50:42;;;;;;;12.80;3.22;;;10.90;99.90;;;;;;5031419;28;20496;-72
2024/02/06 09:53:09;;;;;;;14.52;3.55;;;10.90;99.90;;;;;;5032072;28;20533;-73
2024/02/06 09:55:37;;;;;;;11.95;2.97;;;10.90;99.90;;;;;;5031379;28;20512;-73
2024/02/06 09:58:04;;;;;;;9.80;3.63;;;10.90;99.90;;;;;;5031225;28;20061;-73
2024/02/06 10:00:31;;;;;;;16.98;4.57;;;10.90;99.90;;;;;;5031260;28;20064;-73
2024/02/06 10:03:01;;;;;;;11.63;4.22;;;10.90;99.90;;;;;;5035894;28;20389;-73
2024/02/06 10:05:35;;;;;;;15.02;4.43;;;10.90;99.90;;;;;;5032241;28;20021;-73
2024/02/06 10:08:01;;;;;;;9.30;4.18;;;10.90;99.90;;;;;;5030544;28;20021;-72
2024/02/06 10:10:28;;;;;;;11.88;4.78;;;10.80;99.90;;;;;;5031404;28;20028;-73
2024/02/06 10:12:53;;;;;;;15.68;5.28;;;10.80;99.90;;;;;;5032173;28;20048;-73
2024/02/06 10:15:21;;;;;;;13.82;6.05;;;10.80;99.90;;;;;;5051039;28;20025;-73
2024/02/06 10:17:47;;;;;;;16.52;5.28;;;10.90;99.90;;;;;;5030840;28;20576;-73
2024/02/06 10:20:13;;;;;;;16.95;5.63;;;10.90;99.90;;;;;;5031108;28;20045;-73
2024/02/06 10:22:39;;;;;;;14.73;5.47;;;10.90;99.90;;;;;;5043441;28;20074;-73
2024/02/06 10:25:08;;;;;;;13.52;4.60;;;11.00;99.90;;;;;;5035306;28;20030;-73
2024/02/06 10:27:34;;;;;;;14.82;4.18;;;11.10;99.90;;;;;;5031255;28;20022;-72
2024/02/06 10:30:06;;;;;;;17.48;5.53;;;11.10;99.90;;;;;;5030681;28;20021;-72
2024/02/06 10:32:35;;;;;;;;;;;11.10;99.90;;;;;;5039373;28;20025;-73
2024/02/06 10:35:02;;;;;;;16.73;5.57;;;11.10;99.90;;;;;;5035590;28;19905;-73
2024/02/06 10:37:28;;;;;;;17.50;6.03;;;11.20;99.90;;;;;;5030667;28;20033;-73
2024/02/06 10:39:54;;;;;;;18.25;4.18;;;11.30;99.90;;;;;;5030607;28;20103;-73
2024/02/06 10:42:20;;;;;;;16.10;4.97;;;11.40;99.90;;;;;;5033531;28;20029;-73
2024/02/06 10:44:46;;;;;;;18.23;4.53;;;11.50;99.90;;;;;;5050621;28;20461;-73
2024/02/06 10:47:15;;;;;;;13.02;3.42;;;11.50;99.90;;;;;;5036204;28;20036;-73
2024/02/06 10:49:41;;;;;;;18.05;4.13;;;11.60;99.90;;;;;;5034927;28;20017;-73
2024/02/06 10:52:08;;;;;;;13.95;2.88;;;11.70;99.90;;;;;;5042164;28;20397;-73
2024/02/06 10:54:34;;;;;;;13.98;4.13;;;11.70;99.90;;;;;;5034677;28;20473;-73
2024/02/06 10:57:03;;;;;;;18.48;5.18;;;11.70;99.90;;;;;;5034074;28;20125;-73
2024/02/06 10:59:49;;;;;;;14.18;3.35;;;11.80;99.90;;;;;;5035246;28;20022;-73
2024/02/06 11:02:24;;;;;;;13.27;3.70;;;11.80;99.90;;;;;;5044393;28;20492;-73
2024/02/06 11:05:28;;;;;;;11.07;3.40;;;11.90;99.90;;;;;;5040607;28;20033;-72
2024/02/06 11:08:09;;;;;;;20.42;4.65;;;11.90;99.90;;;;;;5023354;28;20418;-73
2024/02/06 11:10:43;;;;;;;14.23;3.63;;;11.90;99.90;;;;;;5015082;28;20049;-73
2024/02/06 11:13:19;;;;;;;15.68;4.03;;;12.00;99.90;;;;;;5043528;28;20023;-73
2024/02/06 11:15:46;;;;;;;14.70;3.40;;;12.10;99.90;;;;;;5040708;28;20029;-73
2024/02/06 11:18:13;;;;;;;15.63;3.53;;;12.10;99.90;;;;;;5034633;28;20382;-73
2024/02/06 11:20:43;;;;;;;12.57;3.42;;;12.00;99.90;;;;;;5028170;28;20056;-73
2024/02/06 11:23:09;;;;;;;13.55;3.35;;;12.10;99.90;;;;;;5043891;28;20503;-73
2024/02/06 11:25:43;;;;;;;17.58;3.80;;;12.00;99.90;;;;;;5035289;28;20033;-73
2024/02/06 11:28:09;;;;;;;15.13;3.83;;;12.00;99.90;;;;;;5034300;28;20022;-73
2024/02/06 11:30:35;;;;;;;12.60;4.07;;;11.90;99.90;;;;;;5034322;28;20051;-73
2024/02/06 11:33:07;;;;;;;14.68;4.82;;;11.90;99.90;;;;;;5033685;28;20021;-73
2024/02/06 11:35:35;;;;;;;17.58;4.22;;;11.80;99.90;;;;;;5033944;28;20022;-72
2024/02/06 11:38:04;;;;;;;14.70;3.70;;;11.80;99.90;;;;;;5033706;28;20474;-73
2024/02/06 11:40:31;;;;;;;12.15;3.03;;;11.80;99.90;;;;;;5036377;28;20271;-73
2024/02/06 11:43:03;;;;;;;15.50;4.10;;;11.70;99.90;;;;;;5033146;28;20032;-73
2024/02/06 11:45:30;;;;;;;11.40;3.45;;;11.70;99.90;;;;;;5033771;28;20474;-73
2024/02/06 11:47:58;;;;;;;11.07;3.53;;;11.70;99.90;;;;;;5033255;28;20041;-73
2024/02/06 11:50:32;;;;;;;9.63;3.92;;;11.60;99.90;;;;;;5035612;28;20026;-73
2024/02/06 11:53:06;;;;;;;8.27;2.88;;;11.60;99.90;;;;;;5053250;28;20064;-73
2024/02/06 11:55:32;;;;;;;6.60;3.00;;;11.60;99.90;;;;;;5033965;28;20046;-73
2024/02/06 11:57:59;;;;;;;12.77;3.40;;;11.60;99.90;;;;;;5032114;28;20105;-73
2024/02/06 12:00:26;;;;;;;11.32;3.17;;;11.70;99.90;;;;;;5036509;28;20021;-73
2024/02/06 12:02:52;;;;;;;9.05;2.40;;;11.70;99.90;;;;;;5045067;28;20100;-73
2024/02/06 12:05:18;;;;;;;13.55;4.43;;;11.70;99.90;;;;;;5033338;28;20081;-73
2024/02/06 12:07:57;;;;;;;10.02;3.35;;;11.60;99.90;;;;;;5033286;28;20021;-73
2024/02/06 12:10:31;;;;;;;8.48;2.75;;;11.60;99.90;;;;;;5033441;28;20018;-73
2024/02/06 12:13:05;;;;;;;12.30;3.50;;;11.50;99.90;;;;;;5032660;28;20025;-73
2024/02/06 12:15:35;;;;;;;10.25;3.90;;;11.50;99.90;;;;;;5033527;28;20394;-73
2024/02/06 12:18:03;;;;;;;9.25;3.80;;;11.50;99.90;;;;;;5032771;28;20413;-73
2024/02/06 12:20:30;;;;;;;7.45;2.92;;;11.50;99.90;;;;;;5033135;28;20020;-73
2024/02/06 12:22:59;;;;;;;9.70;4.10;;;11.40;99.90;;;;;;5040120;28;20083;-73
2024/02/06 12:25:26;;;;;;;13.90;3.95;;;11.50;99.90;;;;;;5015482;28;20026;-73
2024/02/06 12:28:02;;;;;;;13.98;3.50;;;11.50;99.90;;;;;;5032827;28;20068;-73
2024/02/06 12:30:29;;;;;;;12.57;4.20;;;11.50;99.90;;;;;;5033169;28;20017;-73
2024/02/06 12:32:59;;;;;;;10.65;3.70;;;11.50;99.90;;;;;;5037045;28;20075;-73
2024/02/06 12:35:25;;;;;;;13.45;3.60;;;11.50;99.90;;;;;;5035019;28;20026;-73
2024/02/06 12:37:54;;;;;;;14.73;4.70;;;11.50;99.90;;;;;;5031922;28;20065;-73
2024/02/06 12:40:22;;;;;;;18.38;4.05;;;11.50;99.90;;;;;;5032940;28;20037;-73